Aérodrome :
LOGIN :

S'inscrire | Disclaimer

   EN    FR    IT 

 










Légende :    VFR   VFR Marginal   IFR   IFR Intensif   IFR Très Intensif
Visi : 
Plafond : 
>= 8 km
>= 3000ft
5 à 8 km
1000 à 3000 ft
1500m à 5 km
500 à 1000 ft
800 à 1500m
200 à 500 ft
< 800m
< 200 ft
Symboles :   Orages  Brouillard  Fortes neiges  Fortes précipitations  Vent > 20 kt
SIGMETs :   Divers  Orages  Givrage  Turbulence  Onde Orograph.  Cendres Volcan.







- Altitude de l'aérodrome : 56 ft
- Code IATA : BZR
- Voir les cartes d'approche


LFMU - Beziers / Vias

DERNIER METAR :
  • 190430Z AUTO 13005KT 9999 OVC045 11/07 Q1022 NOSIG

METARs EXPIRÉS :
  • 190400Z AUTO 14007KT 110V170 9999 OVC046 11/07 Q1022 NOSIG
  • 190330Z AUTO 13006KT 9999 OVC046 12/07 Q1022 NOSIG
  • 190300Z AUTO 12007KT 9999 OVC046 12/07 Q1022
  • 190230Z AUTO 13006KT 9999 OVC046 12/07 Q1022
  • 190200Z AUTO 12006KT 9999 OVC047 11/07 Q1022

TAF TAF LFMU
Valide du 19 à 03h jusqu'au 20 à 03h UTC


190200Z 1903/2003 VRB07KT 9999 SCT030 BKN040
PROB40
TEMPO 2000/2003 0800 FG VV///
ATIS : +33 4 67 90 88 88
Pas de NOTAMs connus pour ce terrain.



MET'MAP, la Météo Aéronautique d'un coup d'oeil ! - Copyright ORBIFLY Décembre 2007 - Disclaimer

ORBIFLY MET'MAP TEAM :

Programmation & Développement : Alexandra Zaïnal
Conception & Développement : Baudouin d'Aumeries
Co-Programmation & Développement : Marc-Olivier Méhu
Soutien technique & logistique : Manuel Goepfert

Contact : metmap@orbifly.com




SOURCES & CREDITS :

   NOAA